createdAt,value
2022-09-03T00:02:54.647Z,2.53
2022-09-03T00:06:21.065Z,2.50
2022-09-03T00:09:31.536Z,2.05
2022-09-03T00:12:39.518Z,3.03
2022-09-03T00:15:41.288Z,2.88
2022-09-03T00:19:04.123Z,3.85
2022-09-03T00:22:14.034Z,3.28
2022-09-03T00:25:23.081Z,2.80
2022-09-03T00:28:33.023Z,2.75
2022-09-03T00:31:43.323Z,2.35
2022-09-03T00:34:55.935Z,1.70
2022-09-03T00:37:58.529Z,3.53
2022-09-03T00:41:22.049Z,3.55
2022-09-03T00:44:38.902Z,3.88
2022-09-03T00:48:05.497Z,2.55
2022-09-03T00:51:17.466Z,2.35
2022-09-03T00:55:00.764Z,4.57
2022-09-03T00:58:11.386Z,3.58
2022-09-03T01:01:24.339Z,2.03
2022-09-03T01:04:50.434Z,3.53
2022-09-03T01:08:03.228Z,3.00
2022-09-03T01:11:10.841Z,3.15
2022-09-03T01:14:35.709Z,2.25
2022-09-03T01:17:49.525Z,1.98
2022-09-03T01:21:25.187Z,3.97
2022-09-03T01:24:59.205Z,2.47
2022-09-03T01:28:02.229Z,3.50
2022-09-03T01:31:29.746Z,3.45
2022-09-03T01:35:00.906Z,3.63
2022-09-03T01:38:08.692Z,2.97
2022-09-03T01:42:05.421Z,3.22
2022-09-03T01:45:22.999Z,3.95
2022-09-03T01:48:37.083Z,3.42
2022-09-03T01:51:38.961Z,4.88
2022-09-03T01:54:58.760Z,3.88
2022-09-03T01:58:26.576Z,3.30
2022-09-03T02:01:56.909Z,4.28
2022-09-03T02:05:02.366Z,3.47
2022-09-03T02:08:09.552Z,4.75
2022-09-03T02:11:13.382Z,2.83
2022-09-03T02:14:15.665Z,4.45
2022-09-03T02:17:17.439Z,3.03
2022-09-03T02:20:22.184Z,3.58
2022-09-03T02:23:28.276Z,2.92
2022-09-03T02:26:30.249Z,3.03
2022-09-03T02:29:33.154Z,2.85
2022-09-03T02:32:34.862Z,2.95
2022-09-03T02:35:36.643Z,3.80
2022-09-03T02:38:38.644Z,2.78
2022-09-03T02:41:40.598Z,3.25
2022-09-03T02:45:08.264Z,2.92
2022-09-03T02:51:14.423Z,3.58
2022-09-03T02:54:20.784Z,3.55
2022-09-03T02:57:27.433Z,2.97
2022-09-03T03:00:29.500Z,3.83
2022-09-03T03:03:31.954Z,2.35
2022-09-03T03:06:33.630Z,2.83
2022-09-03T03:09:35.317Z,3.05
2022-09-03T03:12:37.853Z,3.42
2022-09-03T03:15:39.622Z,3.42
2022-09-03T03:18:41.641Z,3.08
2022-09-03T03:21:43.307Z,2.92
2022-09-03T03:24:45.016Z,2.65
2022-09-03T03:27:47.295Z,3.65
2022-09-03T03:30:49.232Z,2.80
2022-09-03T03:33:55.523Z,2.92
2022-09-03T03:36:57.258Z,3.22
2022-09-03T03:39:59.235Z,4.20
2022-09-03T03:43:00.953Z,3.55
2022-09-03T03:46:02.639Z,2.75
2022-09-03T03:49:06.779Z,4.22
2022-09-03T03:52:08.583Z,2.88
2022-09-03T03:55:10.284Z,2.90
2022-09-03T03:58:11.997Z,2.83
2022-09-03T04:01:17.247Z,2.50
2022-09-03T04:04:18.980Z,3.33
2022-09-03T04:07:20.663Z,5.82
2022-09-03T04:10:23.454Z,5.15
2022-09-03T04:13:25.689Z,2.85
2022-09-03T04:16:28.281Z,2.22
2022-09-03T04:19:30.434Z,4.95
2022-09-03T04:22:32.096Z,3.05
2022-09-03T04:25:33.892Z,3.30
2022-09-03T04:28:36.101Z,3.13
2022-09-03T04:31:39.122Z,3.83
2022-09-03T04:34:41.816Z,4.65
2022-09-03T04:37:44.695Z,3.08
2022-09-03T04:40:52.824Z,2.47
2022-09-03T04:43:56.932Z,3.55
2022-09-03T04:46:58.600Z,3.38
2022-09-03T04:50:31.534Z,3.90
2022-09-03T05:01:48.480Z,3.85
2022-09-03T05:13:23.957Z,3.80
2022-09-03T05:23:43.533Z,3.85
2022-09-03T05:26:51.034Z,4.90
2022-09-03T05:32:01.636Z,4.43
2022-09-03T05:33:54.079Z,3.70
2022-09-03T05:36:59.903Z,3.13
2022-09-03T05:40:01.829Z,3.50
2022-09-03T05:43:08.531Z,2.58
2022-09-03T05:49:13.529Z,3.65
2022-09-03T05:52:16.776Z,4.43
2022-09-03T05:55:19.784Z,3.28
2022-09-03T05:59:02.669Z,3.15
2022-09-03T06:02:05.478Z,4.65
2022-09-03T06:05:08.144Z,3.85
2022-09-03T06:08:09.856Z,3.38
2022-09-03T06:11:14.421Z,5.05
2022-09-03T06:14:26.868Z,5.03
2022-09-03T06:17:33.119Z,3.95
2022-09-03T06:20:37.509Z,4.22
2022-09-03T06:23:39.213Z,4.75
2022-09-03T06:26:47.897Z,4.00
2022-09-03T06:29:50.046Z,4.93
2022-09-03T06:32:52.471Z,2.97
2022-09-03T06:35:58.089Z,5.07
2022-09-03T06:38:59.998Z,3.60
2022-09-03T06:42:03.739Z,3.90
2022-09-03T06:45:12.284Z,4.88
2022-09-03T06:48:14.339Z,4.40
2022-09-03T06:51:19.131Z,3.65
2022-09-03T06:54:20.871Z,2.55
2022-09-03T06:57:24.919Z,5.25
2022-09-03T07:00:26.650Z,2.60
2022-09-03T07:03:30.663Z,3.58
2022-09-03T07:06:38.697Z,3.22
2022-09-03T07:09:41.648Z,3.80
2022-09-03T07:12:48.113Z,4.50
2022-09-03T07:19:03.724Z,3.45
2022-09-03T07:22:05.537Z,5.18
2022-09-03T07:25:07.742Z,2.90
2022-09-03T07:28:12.505Z,4.30
2022-09-03T07:31:19.247Z,4.82
2022-09-03T07:34:27.767Z,6.55
2022-09-03T07:37:29.512Z,3.88
2022-09-03T07:40:33.162Z,3.80
2022-09-03T07:43:40.006Z,4.55
2022-09-03T07:46:41.981Z,3.08
2022-09-03T07:49:43.764Z,4.22
2022-09-03T07:59:12.896Z,3.72
2022-09-03T08:02:14.614Z,3.60
2022-09-03T08:05:20.534Z,3.33
2022-09-03T08:08:22.491Z,2.65
2022-09-03T08:11:24.591Z,4.22
2022-09-03T08:14:26.275Z,3.15
2022-09-03T08:17:28.283Z,5.18
2022-09-03T08:20:30.064Z,4.47
2022-09-03T08:23:34.373Z,3.00
2022-09-03T08:26:38.871Z,4.05
2022-09-03T08:29:40.529Z,3.97
2022-09-03T08:32:48.767Z,2.58
2022-09-03T08:35:54.890Z,4.00
2022-09-03T08:38:58.312Z,3.88
2022-09-03T08:42:15.908Z,3.55
2022-09-03T08:45:21.371Z,4.75
2022-09-03T08:48:26.030Z,2.40
2022-09-03T08:51:28.061Z,3.83
2022-09-03T08:54:32.018Z,4.63
2022-09-03T08:57:48.199Z,2.50
2022-09-03T09:00:54.429Z,5.15
2022-09-03T09:04:37.680Z,4.53
2022-09-03T09:08:09.861Z,4.65
2022-09-03T09:11:26.874Z,2.60
2022-09-03T09:14:45.578Z,4.80
2022-09-03T09:17:59.391Z,2.90
2022-09-03T09:21:20.310Z,3.55
2022-09-03T09:24:26.478Z,3.78
2022-09-03T09:27:28.703Z,3.88
2022-09-03T09:30:34.876Z,3.53
2022-09-03T09:33:36.556Z,3.55
2022-09-03T09:36:50.506Z,4.18
2022-09-03T09:40:01.054Z,3.78
2022-09-03T09:43:08.066Z,3.47
2022-09-03T09:46:15.121Z,3.00
2022-09-03T09:49:33.167Z,3.85
2022-09-03T09:52:35.235Z,2.53
2022-09-03T09:55:48.240Z,3.17
2022-09-03T09:58:53.925Z,3.45
2022-09-03T10:02:10.338Z,5.80
2022-09-03T10:05:37.860Z,4.53
2022-09-03T10:08:48.437Z,2.67
2022-09-03T10:12:13.421Z,5.10
2022-09-03T10:15:47.694Z,3.85
2022-09-03T10:18:53.812Z,4.03
2022-09-03T10:22:06.025Z,2.72
2022-09-03T10:25:09.042Z,2.67
2022-09-03T10:28:13.927Z,6.10
2022-09-03T10:31:22.395Z,4.50
2022-09-03T10:35:11.305Z,5.10
2022-09-03T10:38:34.610Z,5.18
2022-09-03T10:41:41.235Z,2.80
2022-09-03T10:44:59.300Z,3.42
2022-09-03T10:48:22.595Z,3.45
2022-09-03T10:51:29.954Z,2.95
2022-09-03T10:54:47.867Z,5.75
2022-09-03T10:58:12.837Z,5.80
2022-09-03T11:01:27.437Z,2.90
2022-09-03T11:04:42.020Z,3.20
2022-09-03T11:07:53.234Z,2.42
2022-09-03T11:11:00.339Z,8.48
2022-09-03T11:14:25.436Z,6.15
2022-09-03T11:17:34.131Z,4.45
2022-09-03T11:20:39.235Z,4.25
2022-09-03T11:23:45.490Z,4.45
2022-09-03T11:27:09.523Z,2.92
2022-09-03T11:30:23.601Z,3.88
2022-09-03T11:33:29.248Z,4.95
2022-09-03T11:36:47.331Z,4.57
2022-09-03T11:40:13.724Z,3.33
2022-09-03T11:43:24.603Z,4.47
2022-09-03T11:46:26.357Z,4.90
2022-09-03T11:49:33.468Z,3.55
2022-09-03T11:52:40.601Z,3.22
2022-09-03T11:56:19.343Z,5.80
2022-09-03T11:59:26.597Z,3.35
2022-09-03T12:02:41.134Z,4.63
2022-09-03T12:05:48.470Z,5.38
2022-09-03T12:09:11.779Z,3.08
2022-09-03T12:12:23.887Z,3.88
2022-09-03T12:16:04.132Z,2.35
2022-09-03T12:19:36.426Z,3.22
2022-09-03T12:22:41.576Z,3.35
2022-09-03T12:25:47.410Z,2.00
2022-09-03T12:28:52.195Z,2.65
2022-09-03T12:31:56.346Z,3.50
2022-09-03T12:34:58.624Z,3.33
2022-09-03T12:38:04.590Z,5.80
2022-09-03T12:41:23.114Z,2.80
2022-09-03T12:44:33.196Z,3.83
2022-09-03T12:47:40.012Z,4.00
2022-09-03T12:50:49.457Z,2.70
2022-09-03T12:53:58.924Z,2.20
2022-09-03T12:57:01.365Z,5.05
2022-09-03T13:00:08.354Z,2.58
2022-09-03T13:03:18.192Z,4.32
2022-09-03T13:06:28.425Z,2.15
2022-09-03T13:09:33.349Z,4.38
2022-09-03T13:12:44.557Z,5.05
2022-09-03T13:16:06.340Z,4.35
2022-09-03T13:19:53.141Z,2.20
2022-09-03T13:23:16.887Z,2.87
2022-09-03T13:26:32.301Z,2.60
2022-09-03T13:29:36.838Z,2.00
2022-09-03T13:33:09.564Z,3.80
2022-09-03T13:36:31.925Z,5.15
2022-09-03T13:39:38.393Z,8.20
2022-09-03T13:42:44.020Z,6.30
2022-09-03T13:46:02.200Z,3.45
2022-09-03T13:49:52.063Z,2.97
2022-09-03T13:53:07.532Z,4.13
2022-09-03T13:56:43.643Z,3.75
2022-09-03T13:59:45.555Z,2.65
2022-09-03T14:02:50.274Z,4.18
2022-09-03T14:06:26.616Z,2.63
2022-09-03T14:09:56.116Z,3.80
2022-09-03T14:13:22.637Z,5.10
2022-09-03T14:16:55.263Z,3.17
2022-09-03T14:20:10.997Z,4.40
2022-09-03T14:23:38.480Z,4.33
2022-09-03T14:26:50.741Z,3.88
2022-09-03T14:30:05.231Z,10.93
2022-09-03T14:33:41.149Z,6.63
2022-09-03T14:37:13.166Z,3.70
2022-09-03T14:40:36.213Z,3.45
2022-09-03T14:44:04.500Z,5.25
2022-09-03T14:47:50.810Z,3.75
2022-09-03T14:51:04.724Z,5.25
2022-09-03T14:54:25.909Z,6.45
2022-09-03T14:57:45.657Z,3.58
2022-09-03T15:01:06.318Z,3.55
2022-09-03T15:04:47.324Z,4.90
2022-09-03T15:07:57.683Z,2.40
2022-09-03T15:11:01.828Z,3.78
2022-09-03T15:14:15.726Z,3.65
2022-09-03T15:17:25.808Z,3.83
2022-09-03T15:20:42.984Z,4.00
2022-09-03T15:23:56.782Z,4.50
2022-09-03T15:27:24.193Z,2.80
2022-09-03T15:30:34.416Z,5.90
2022-09-03T15:34:05.433Z,4.20
2022-09-03T15:37:43.915Z,5.45
2022-09-03T15:40:45.550Z,3.38
2022-09-03T15:43:51.154Z,3.35
2022-09-03T15:46:56.727Z,2.78
2022-09-03T15:50:27.159Z,4.25
2022-09-03T15:53:43.228Z,2.22
2022-09-03T15:56:58.983Z,3.60
2022-09-03T16:00:21.285Z,7.93
2022-09-03T16:03:46.806Z,3.92
2022-09-03T16:07:12.818Z,2.83
2022-09-03T16:10:24.747Z,5.50
2022-09-03T16:14:18.539Z,4.47
2022-09-03T16:17:33.528Z,5.05
2022-09-03T16:20:56.123Z,2.30
2022-09-03T16:24:09.676Z,2.97
2022-09-03T16:27:23.349Z,4.22
2022-09-03T16:30:58.590Z,6.28
2022-09-03T16:34:27.832Z,4.20
2022-09-03T16:38:00.301Z,2.85
2022-09-03T16:41:22.029Z,5.15
2022-09-03T16:44:50.649Z,3.88
2022-09-03T16:48:00.010Z,2.72
2022-09-03T16:51:35.767Z,4.60
2022-09-03T16:54:57.547Z,4.85
2022-09-03T16:58:34.306Z,3.45
2022-09-03T17:01:36.038Z,5.22
2022-09-03T17:05:16.113Z,5.43
2022-09-03T17:08:32.267Z,3.92
2022-09-03T17:11:57.592Z,6.35
2022-09-03T17:15:17.612Z,4.25
2022-09-03T17:18:38.208Z,3.40
2022-09-03T17:22:06.501Z,3.75
2022-09-03T17:25:35.778Z,4.25
2022-09-03T17:28:46.536Z,4.97
2022-09-03T17:32:12.968Z,3.42
2022-09-03T17:35:29.108Z,5.27
2022-09-03T17:38:42.930Z,6.53
2022-09-03T17:41:53.354Z,5.25
2022-09-03T17:45:13.150Z,6.65
2022-09-03T17:48:36.591Z,4.93
2022-09-03T17:51:47.438Z,4.35
2022-09-03T17:54:53.395Z,4.00
2022-09-03T17:58:14.776Z,5.30
2022-09-03T18:01:29.347Z,6.57
2022-09-03T18:04:43.421Z,3.38
2022-09-03T18:07:58.747Z,6.65
2022-09-03T18:11:26.027Z,4.15
2022-09-03T18:18:03.257Z,2.95
2022-09-03T18:21:31.895Z,3.93
2022-09-03T18:25:03.681Z,4.03
2022-09-03T18:28:29.713Z,4.07
2022-09-03T18:31:50.120Z,4.65
2022-09-03T18:35:10.434Z,5.03
2022-09-03T18:38:31.936Z,5.45
2022-09-03T18:42:19.260Z,3.50
2022-09-03T18:46:46.230Z,3.60
2022-09-03T18:53:32.952Z,4.55
2022-09-03T18:57:06.292Z,4.38
2022-09-03T19:00:30.904Z,4.70
2022-09-03T19:04:19.577Z,5.65
2022-09-03T19:07:59.899Z,4.22
2022-09-03T19:11:36.764Z,4.32
2022-09-03T19:15:26.298Z,5.68
2022-09-03T19:18:52.618Z,4.85
2022-09-03T19:22:26.968Z,5.22
2022-09-03T19:25:48.782Z,4.32
2022-09-03T19:29:20.585Z,4.88
2022-09-03T19:33:12.062Z,5.00
2022-09-03T19:37:11.850Z,4.53
2022-09-03T19:40:54.757Z,4.38
2022-09-03T19:44:35.616Z,3.55
2022-09-03T19:49:02.511Z,4.20
2022-09-03T19:52:27.737Z,4.80
2022-09-03T19:55:54.179Z,5.00
2022-09-03T19:59:19.062Z,3.50
2022-09-03T20:02:54.126Z,5.57
2022-09-03T20:06:28.407Z,4.43
2022-09-03T20:10:02.045Z,5.05
2022-09-03T20:13:10.503Z,4.15
2022-09-03T20:16:22.078Z,4.75
2022-09-03T20:19:37.723Z,4.95
2022-09-03T20:23:03.242Z,6.70
2022-09-03T20:26:31.205Z,5.20
2022-09-03T20:29:58.686Z,4.55
2022-09-03T20:33:22.947Z,5.78
2022-09-03T20:36:56.782Z,4.80
2022-09-03T20:40:17.120Z,7.47
2022-09-03T20:43:40.856Z,5.47
2022-09-03T20:47:07.604Z,6.47
2022-09-03T20:50:24.782Z,7.35
2022-09-03T20:53:32.001Z,6.70
2022-09-03T20:56:40.039Z,5.53
2022-09-03T20:59:57.528Z,4.45
2022-09-03T21:03:29.176Z,5.38
2022-09-03T21:06:50.900Z,6.25
2022-09-03T21:10:03.256Z,8.57
2022-09-03T21:13:25.376Z,6.97
2022-09-03T21:16:42.428Z,5.13
2022-09-03T21:23:15.318Z,5.10
2022-09-03T21:26:20.609Z,5.97
2022-09-03T21:29:22.761Z,5.10
2022-09-03T21:32:34.319Z,6.35
2022-09-03T21:35:44.596Z,4.72
2022-09-03T21:39:00.672Z,6.05
2022-09-03T21:42:37.789Z,4.05
2022-09-03T21:45:51.751Z,3.97
2022-09-03T21:49:03.146Z,6.50
2022-09-03T21:52:16.338Z,4.20
2022-09-03T21:55:33.887Z,4.18
2022-09-03T21:58:58.773Z,6.95
2022-09-03T22:02:21.659Z,6.32
2022-09-03T22:05:29.000Z,4.68
2022-09-03T22:08:49.212Z,7.35
2022-09-03T22:12:30.506Z,7.03
2022-09-03T22:15:35.014Z,6.68
2022-09-03T22:18:37.976Z,5.90
2022-09-03T22:21:59.531Z,5.93
2022-09-03T22:25:08.443Z,6.57
2022-09-03T22:28:40.738Z,5.72
2022-09-03T22:31:49.903Z,5.95
2022-09-03T22:35:19.488Z,5.55
2022-09-03T22:38:49.300Z,6.90
2022-09-03T22:42:15.437Z,4.68
2022-09-03T22:45:58.180Z,6.80
2022-09-03T22:49:00.005Z,4.57
2022-09-03T22:52:21.004Z,5.03
2022-09-03T22:55:25.630Z,3.85
2022-09-03T22:58:33.461Z,5.60
2022-09-03T23:01:39.398Z,7.57
2022-09-03T23:04:56.313Z,5.97
2022-09-03T23:08:13.125Z,4.80
2022-09-03T23:11:39.639Z,3.90
2022-09-03T23:14:51.614Z,7.28
2022-09-03T23:18:06.652Z,4.25
2022-09-03T23:21:26.554Z,5.70
2022-09-03T23:24:32.560Z,5.68
2022-09-03T23:27:44.921Z,4.30
2022-09-03T23:30:46.731Z,8.57
2022-09-03T23:33:52.152Z,12.90
2022-09-03T23:37:22.435Z,14.38
2022-09-03T23:40:48.043Z,14.77
2022-09-03T23:44:03.181Z,15.25
2022-09-03T23:47:54.836Z,11.50
2022-09-03T23:51:20.553Z,8.82
2022-09-03T23:55:04.171Z,7.72
2022-09-03T23:58:21.022Z,7.22
